sensor_id;sensor_type;location;lat;lon;timestamp;pressure;altitude;pressure_sealevel;temperature;humidity
71567;BME280;59403;47.456;19.120;2023-04-22T00:00:50;100185.97;;;10.13;93.24
71567;BME280;59403;47.456;19.120;2023-04-22T00:03:19;100173.91;;;10.10;93.25
71567;BME280;59403;47.456;19.120;2023-04-22T00:05:47;100188.25;;;10.08;93.83
71567;BME280;59403;47.456;19.120;2023-04-22T00:08:14;100189.78;;;10.10;93.54
71567;BME280;59403;47.456;19.120;2023-04-22T00:10:42;100182.13;;;10.07;93.95
71567;BME280;59403;47.456;19.120;2023-04-22T00:13:09;100189.13;;;10.08;94.61
71567;BME280;59403;47.456;19.120;2023-04-22T00:15:36;100185.59;;;10.08;94.82
71567;BME280;59403;47.456;19.120;2023-04-22T00:18:03;100180.63;;;10.05;95.34
71567;BME280;59403;47.456;19.120;2023-04-22T00:20:31;100181.84;;;10.10;94.26
71567;BME280;59403;47.456;19.120;2023-04-22T00:22:58;100181.53;;;10.13;94.93
71567;BME280;59403;47.456;19.120;2023-04-22T00:25:25;100183.66;;;10.10;95.61
71567;BME280;59403;47.456;19.120;2023-04-22T00:27:53;100179.91;;;10.20;94.82
71567;BME280;59403;47.456;19.120;2023-04-22T00:30:20;100191.16;;;10.22;94.63
71567;BME280;59403;47.456;19.120;2023-04-22T00:32:47;100189.00;;;10.18;94.59
71567;BME280;59403;47.456;19.120;2023-04-22T00:35:14;100185.69;;;10.24;94.08
71567;BME280;59403;47.456;19.120;2023-04-22T00:37:41;100183.06;;;10.24;94.37
71567;BME280;59403;47.456;19.120;2023-04-22T00:40:09;100183.72;;;10.26;94.50
71567;BME280;59403;47.456;19.120;2023-04-22T00:42:36;100179.09;;;10.28;93.93
71567;BME280;59403;47.456;19.120;2023-04-22T00:45:09;100185.38;;;10.27;94.56
71567;BME280;59403;47.456;19.120;2023-04-22T00:47:37;100174.50;;;10.30;94.64
71567;BME280;59403;47.456;19.120;2023-04-22T00:50:04;100175.13;;;10.32;94.78
71567;BME280;59403;47.456;19.120;2023-04-22T00:52:31;100171.50;;;10.33;94.61
71567;BME280;59403;47.456;19.120;2023-04-22T00:54:58;100172.34;;;10.34;94.73
71567;BME280;59403;47.456;19.120;2023-04-22T00:57:26;100172.81;;;10.29;95.62
71567;BME280;59403;47.456;19.120;2023-04-22T00:59:55;100173.97;;;10.26;95.94
71567;BME280;59403;47.456;19.120;2023-04-22T01:02:23;100177.94;;;10.22;96.29
71567;BME280;59403;47.456;19.120;2023-04-22T01:04:51;100182.44;;;10.30;95.64
71567;BME280;59403;47.456;19.120;2023-04-22T01:07:19;100186.56;;;10.32;94.50
71567;BME280;59403;47.456;19.120;2023-04-22T01:09:46;100190.53;;;10.28;94.61
71567;BME280;59403;47.456;19.120;2023-04-22T01:12:13;100191.16;;;10.22;94.41
71567;BME280;59403;47.456;19.120;2023-04-22T01:14:40;100192.28;;;10.12;95.04
71567;BME280;59403;47.456;19.120;2023-04-22T01:17:07;100189.13;;;10.08;95.47
71567;BME280;59403;47.456;19.120;2023-04-22T01:19:37;100189.25;;;10.07;96.17
71567;BME280;59403;47.456;19.120;2023-04-22T01:22:07;100192.50;;;10.01;96.67
71567;BME280;59403;47.456;19.120;2023-04-22T01:24:35;100201.25;;;9.93;97.23
71567;BME280;59403;47.456;19.120;2023-04-22T01:27:02;100203.37;;;9.90;97.45
71567;BME280;59403;47.456;19.120;2023-04-22T01:29:29;100199.69;;;9.83;97.64
71567;BME280;59403;47.456;19.120;2023-04-22T01:31:56;100198.47;;;9.69;98.53
71567;BME280;59403;47.456;19.120;2023-04-22T01:34:23;100196.06;;;9.58;98.66
71567;BME280;59403;47.456;19.120;2023-04-22T01:36:50;100193.13;;;9.61;98.27
71567;BME280;59403;47.456;19.120;2023-04-22T01:39:17;100197.59;;;9.61;97.01
71567;BME280;59403;47.456;19.120;2023-04-22T01:41:46;100194.13;;;9.60;96.69
71567;BME280;59403;47.456;19.120;2023-04-22T01:44:13;100203.41;;;9.64;95.30
71567;BME280;59403;47.456;19.120;2023-04-22T01:46:40;100199.28;;;9.70;95.10
71567;BME280;59403;47.456;19.120;2023-04-22T01:49:06;100201.47;;;9.74;94.11
71567;BME280;59403;47.456;19.120;2023-04-22T01:51:34;100202.59;;;9.72;93.96
71567;BME280;59403;47.456;19.120;2023-04-22T01:54:01;100203.28;;;9.74;93.71
71567;BME280;59403;47.456;19.120;2023-04-22T01:56:28;100201.66;;;9.81;92.47
71567;BME280;59403;47.456;19.120;2023-04-22T01:58:56;100201.19;;;9.85;92.22
71567;BME280;59403;47.456;19.120;2023-04-22T02:01:23;100198.25;;;9.88;91.82
71567;BME280;59403;47.456;19.120;2023-04-22T02:03:50;100201.41;;;9.92;91.66
71567;BME280;59403;47.456;19.120;2023-04-22T02:06:17;100193.94;;;9.87;91.57
71567;BME280;59403;47.456;19.120;2023-04-22T02:08:44;100190.78;;;9.84;91.95
71567;BME280;59403;47.456;19.120;2023-04-22T02:11:10;100194.25;;;9.84;91.52
71567;BME280;59403;47.456;19.120;2023-04-22T02:13:39;100196.22;;;9.82;91.18
71567;BME280;59403;47.456;19.120;2023-04-22T02:16:07;100196.22;;;9.82;91.05
71567;BME280;59403;47.456;19.120;2023-04-22T02:18:35;100197.22;;;9.81;90.50
71567;BME280;59403;47.456;19.120;2023-04-22T02:21:02;100196.37;;;9.81;90.67
71567;BME280;59403;47.456;19.120;2023-04-22T02:23:29;100196.22;;;9.82;90.93
71567;BME280;59403;47.456;19.120;2023-04-22T02:25:56;100194.88;;;9.78;91.13
71567;BME280;59403;47.456;19.120;2023-04-22T02:28:23;100195.34;;;9.74;91.23
71567;BME280;59403;47.456;19.120;2023-04-22T02:30:50;100187.56;;;9.72;90.33
71567;BME280;59403;47.456;19.120;2023-04-22T02:33:18;100194.16;;;9.68;90.44
71567;BME280;59403;47.456;19.120;2023-04-22T02:35:45;100185.19;;;9.61;90.75
71567;BME280;59403;47.456;19.120;2023-04-22T02:38:12;100194.56;;;9.56;90.95
71567;BME280;59403;47.456;19.120;2023-04-22T02:40:39;100188.47;;;9.55;91.00
71567;BME280;59403;47.456;19.120;2023-04-22T02:43:06;100184.16;;;9.54;90.84
71567;BME280;59403;47.456;19.120;2023-04-22T02:45:33;100190.09;;;9.56;90.77
71567;BME280;59403;47.456;19.120;2023-04-22T02:48:00;100186.78;;;9.54;91.12
71567;BME280;59403;47.456;19.120;2023-04-22T02:50:28;100186.28;;;9.51;91.64
71567;BME280;59403;47.456;19.120;2023-04-22T02:52:55;100187.88;;;9.44;92.17
71567;BME280;59403;47.456;19.120;2023-04-22T02:55:23;100192.44;;;9.34;93.19
71567;BME280;59403;47.456;19.120;2023-04-22T02:57:50;100192.06;;;9.29;93.33
71567;BME280;59403;47.456;19.120;2023-04-22T03:00:17;100186.63;;;9.30;92.85
71567;BME280;59403;47.456;19.120;2023-04-22T03:02:44;100194.03;;;9.27;92.84
71567;BME280;59403;47.456;19.120;2023-04-22T03:05:11;100191.53;;;9.25;92.32
71567;BME280;59403;47.456;19.120;2023-04-22T03:07:39;100191.53;;;9.25;92.38
71567;BME280;59403;47.456;19.120;2023-04-22T03:10:06;100191.22;;;9.28;92.36
71567;BME280;59403;47.456;19.120;2023-04-22T03:12:34;100199.47;;;9.25;92.42
71567;BME280;59403;47.456;19.120;2023-04-22T03:15:01;100194.66;;;9.21;92.86
71567;BME280;59403;47.456;19.120;2023-04-22T03:17:28;100190.34;;;9.19;93.02
71567;BME280;59403;47.456;19.120;2023-04-22T03:19:54;100192.00;;;9.21;93.04
71567;BME280;59403;47.456;19.120;2023-04-22T03:22:21;100191.66;;;9.15;93.28
71567;BME280;59403;47.456;19.120;2023-04-22T03:24:49;100195.47;;;9.21;93.12
71567;BME280;59403;47.456;19.120;2023-04-22T03:27:16;100194.34;;;9.24;93.05
71567;BME280;59403;47.456;19.120;2023-04-22T03:29:43;100199.31;;;9.27;93.18
71567;BME280;59403;47.456;19.120;2023-04-22T03:32:10;100194.56;;;9.30;92.95
71567;BME280;59403;47.456;19.120;2023-04-22T03:34:37;100202.31;;;9.32;93.07
71567;BME280;59403;47.456;19.120;2023-04-22T03:37:04;100194.09;;;9.35;92.72
71567;BME280;59403;47.456;19.120;2023-04-22T03:39:30;100199.69;;;9.32;93.10
71567;BME280;59403;47.456;19.120;2023-04-22T03:41:59;100211.09;;;9.32;93.33
71567;BME280;59403;47.456;19.120;2023-04-22T03:44:26;100206.78;;;9.31;94.00
71567;BME280;59403;47.456;19.120;2023-04-22T03:46:52;100208.75;;;9.29;94.42
71567;BME280;59403;47.456;19.120;2023-04-22T03:49:19;100214.19;;;9.28;94.84
71567;BME280;59403;47.456;19.120;2023-04-22T03:51:46;100210.56;;;9.29;94.86
71567;BME280;59403;47.456;19.120;2023-04-22T03:54:13;100209.50;;;9.22;95.45
71567;BME280;59403;47.456;19.120;2023-04-22T03:56:40;100214.28;;;9.18;95.37
71567;BME280;59403;47.456;19.120;2023-04-22T03:59:08;100212.91;;;9.14;95.96
71567;BME280;59403;47.456;19.120;2023-04-22T04:01:35;100212.91;;;9.14;95.84
71567;BME280;59403;47.456;19.120;2023-04-22T04:04:02;100217.91;;;9.17;94.93
71567;BME280;59403;47.456;19.120;2023-04-22T04:06:29;100219.25;;;9.21;94.76
71567;BME280;59403;47.456;19.120;2023-04-22T04:08:56;100210.66;;;9.19;95.05
71567;BME280;59403;47.456;19.120;2023-04-22T04:11:23;100209.81;;;9.18;95.29
71567;BME280;59403;47.456;19.120;2023-04-22T04:13:50;100213.16;;;9.21;95.33
71567;BME280;59403;47.456;19.120;2023-04-22T04:16:18;100213.97;;;9.21;95.70
71567;BME280;59403;47.456;19.120;2023-04-22T04:18:45;100217.44;;;9.22;96.13
71567;BME280;59403;47.456;19.120;2023-04-22T04:21:11;100218.81;;;9.26;95.65
71567;BME280;59403;47.456;19.120;2023-04-22T04:23:38;100225.88;;;9.25;96.16
71567;BME280;59403;47.456;19.120;2023-04-22T04:26:05;100227.25;;;9.29;95.67
71567;BME280;59403;47.456;19.120;2023-04-22T04:28:32;100224.63;;;9.29;95.73
71567;BME280;59403;47.456;19.120;2023-04-22T04:31:00;100231.69;;;9.29;95.83
71567;BME280;59403;47.456;19.120;2023-04-22T04:33:28;100239.47;;;9.30;95.87
71567;BME280;59403;47.456;19.120;2023-04-22T04:35:56;100233.87;;;9.33;95.58
71567;BME280;59403;47.456;19.120;2023-04-22T04:38:24;100239.69;;;9.37;95.11
71567;BME280;59403;47.456;19.120;2023-04-22T04:40:51;100239.69;;;9.37;95.74
71567;BME280;59403;47.456;19.120;2023-04-22T04:43:19;100239.78;;;9.45;95.99
71567;BME280;59403;47.456;19.120;2023-04-22T04:45:50;100245.06;;;9.45;96.05
71567;BME280;59403;47.456;19.120;2023-04-22T04:48:17;100249.94;;;9.57;95.89
71567;BME280;59403;47.456;19.120;2023-04-22T04:50:45;100245.78;;;9.80;93.15
71567;BME280;59403;47.456;19.120;2023-04-22T04:53:12;100245.88;;;9.88;91.12
71567;BME280;59403;47.456;19.120;2023-04-22T04:55:39;100254.03;;;10.03;89.69
71567;BME280;59403;47.456;19.120;2023-04-22T04:58:06;100246.84;;;10.47;87.65
71567;BME280;59403;47.456;19.120;2023-04-22T05:00:32;100248.59;;;10.72;85.73
71567;BME280;59403;47.456;19.120;2023-04-22T05:02:59;100256.91;;;10.93;84.59
71567;BME280;59403;47.456;19.120;2023-04-22T05:05:27;100249.47;;;11.04;83.87
71567;BME280;59403;47.456;19.120;2023-04-22T05:07:55;100253.94;;;10.96;83.13
71567;BME280;59403;47.456;19.120;2023-04-22T05:10:22;100256.94;;;11.01;83.60
71567;BME280;59403;47.456;19.120;2023-04-22T05:12:49;100257.44;;;11.04;83.08
71567;BME280;59403;47.456;19.120;2023-04-22T05:15:16;100256.75;;;11.02;82.94
71567;BME280;59403;47.456;19.120;2023-04-22T05:17:43;100268.00;;;10.96;82.77
71567;BME280;59403;47.456;19.120;2023-04-22T05:20:10;100257.09;;;10.99;82.42
71567;BME280;59403;47.456;19.120;2023-04-22T05:22:37;100258.25;;;11.21;81.50
71567;BME280;59403;47.456;19.120;2023-04-22T05:25:08;100254.63;;;11.14;81.44
71567;BME280;59403;47.456;19.120;2023-04-22T05:27:35;100259.94;;;11.38;79.53
71567;BME280;59403;47.456;19.120;2023-04-22T05:30:02;100253.31;;;11.58;79.24
71567;BME280;59403;47.456;19.120;2023-04-22T05:32:29;100256.31;;;11.79;78.52
71567;BME280;59403;47.456;19.120;2023-04-22T05:34:56;100253.63;;;12.50;74.31
71567;BME280;59403;47.456;19.120;2023-04-22T05:37:23;100251.06;;;12.95;73.27
71567;BME280;59403;47.456;19.120;2023-04-22T05:39:50;100254.50;;;12.73;73.75
71567;BME280;59403;47.456;19.120;2023-04-22T05:42:18;100262.56;;;12.88;72.76
71567;BME280;59403;47.456;19.120;2023-04-22T05:44:45;100262.50;;;13.26;70.24
71567;BME280;59403;47.456;19.120;2023-04-22T05:47:12;100263.56;;;13.40;67.56
71567;BME280;59403;47.456;19.120;2023-04-22T05:49:39;100253.16;;;13.53;66.03
71567;BME280;59403;47.456;19.120;2023-04-22T05:52:06;100264.56;;;13.61;67.15
71567;BME280;59403;47.456;19.120;2023-04-22T05:54:32;100265.75;;;13.14;66.70
71567;BME280;59403;47.456;19.120;2023-04-22T05:56:59;100259.41;;;12.84;65.88
71567;BME280;59403;47.456;19.120;2023-04-22T05:59:28;100262.97;;;12.77;69.16
71567;BME280;59403;47.456;19.120;2023-04-22T06:01:55;100266.00;;;12.66;69.48
71567;BME280;59403;47.456;19.120;2023-04-22T06:04:22;100264.56;;;12.55;69.59
71567;BME280;59403;47.456;19.120;2023-04-22T06:06:49;100271.06;;;12.52;69.16
71567;BME280;59403;47.456;19.120;2023-04-22T06:09:18;100273.03;;;12.50;69.21
71567;BME280;59403;47.456;19.120;2023-04-22T06:11:45;100274.19;;;12.56;69.49
71567;BME280;59403;47.456;19.120;2023-04-22T06:14:11;100276.62;;;12.66;69.87
71567;BME280;59403;47.456;19.120;2023-04-22T06:16:40;100277.22;;;12.76;69.85
71567;BME280;59403;47.456;19.120;2023-04-22T06:19:07;100272.75;;;12.76;68.52
71567;BME280;59403;47.456;19.120;2023-04-22T06:21:34;100280.34;;;12.87;68.98
71567;BME280;59403;47.456;19.120;2023-04-22T06:24:03;100281.59;;;13.07;68.41
71567;BME280;59403;47.456;19.120;2023-04-22T06:26:30;100285.31;;;13.21;67.60
71567;BME280;59403;47.456;19.120;2023-04-22T06:28:57;100284.97;;;13.46;66.15
71567;BME280;59403;47.456;19.120;2023-04-22T06:31:24;100281.47;;;13.68;65.97
71567;BME280;59403;47.456;19.120;2023-04-22T06:33:52;100287.94;;;13.89;64.58
71567;BME280;59403;47.456;19.120;2023-04-22T06:36:19;100284.09;;;14.06;64.41
71567;BME280;59403;47.456;19.120;2023-04-22T06:38:46;100281.44;;;14.20;63.34
71567;BME280;59403;47.456;19.120;2023-04-22T06:41:12;100280.09;;;14.24;61.83
71567;BME280;59403;47.456;19.120;2023-04-22T06:43:39;100277.34;;;14.32;60.44
71567;BME280;59403;47.456;19.120;2023-04-22T06:46:06;100276.53;;;14.61;61.26
71567;BME280;59403;47.456;19.120;2023-04-22T06:48:33;100279.47;;;14.66;60.95
71567;BME280;59403;47.456;19.120;2023-04-22T06:51:01;100283.38;;;14.85;58.80
71567;BME280;59403;47.456;19.120;2023-04-22T06:53:28;100283.69;;;14.96;59.66
71567;BME280;59403;47.456;19.120;2023-04-22T06:55:55;100281.19;;;15.09;56.98
71567;BME280;59403;47.456;19.120;2023-04-22T06:58:21;100275.19;;;15.22;56.17
71567;BME280;59403;47.456;19.120;2023-04-22T07:00:48;100276.62;;;15.24;57.00
71567;BME280;59403;47.456;19.120;2023-04-22T07:03:15;100280.09;;;15.39;55.31
71567;BME280;59403;47.456;19.120;2023-04-22T07:05:42;100270.25;;;15.40;55.55
71567;BME280;59403;47.456;19.120;2023-04-22T07:08:10;100276.28;;;15.48;55.37
71567;BME280;59403;47.456;19.120;2023-04-22T07:10:37;100271.31;;;15.66;55.49
71567;BME280;59403;47.456;19.120;2023-04-22T07:13:04;100278.81;;;15.77;53.65
71567;BME280;59403;47.456;19.120;2023-04-22T07:15:31;100276.91;;;15.99;53.80
71567;BME280;59403;47.456;19.120;2023-04-22T07:17:57;100277.59;;;16.08;48.59
71567;BME280;59403;47.456;19.120;2023-04-22T07:20:24;100270.97;;;16.31;49.64
71567;BME280;59403;47.456;19.120;2023-04-22T07:22:51;100281.91;;;16.36;50.13
71567;BME280;59403;47.456;19.120;2023-04-22T07:25:20;100278.22;;;16.44;49.31
71567;BME280;59403;47.456;19.120;2023-04-22T07:27:46;100275.50;;;16.65;48.72
71567;BME280;59403;47.456;19.120;2023-04-22T07:30:14;100277.00;;;16.80;49.16
71567;BME280;59403;47.456;19.120;2023-04-22T07:32:41;100275.44;;;16.99;48.66
71567;BME280;59403;47.456;19.120;2023-04-22T07:35:08;100275.88;;;17.02;48.16
71567;BME280;59403;47.456;19.120;2023-04-22T07:37:35;100276.28;;;17.06;43.64
71567;BME280;59403;47.456;19.120;2023-04-22T07:40:01;100279.41;;;17.23;45.50
71567;BME280;59403;47.456;19.120;2023-04-22T07:42:30;100275.72;;;17.37;40.85
71567;BME280;59403;47.456;19.120;2023-04-22T07:44:57;100279.88;;;17.46;41.49
71567;BME280;59403;47.456;19.120;2023-04-22T07:47:24;100280.94;;;17.58;39.72
71567;BME280;59403;47.456;19.120;2023-04-22T07:49:51;100282.16;;;17.81;38.97
71567;BME280;59403;47.456;19.120;2023-04-22T07:52:18;100278.91;;;17.86;36.32
71567;BME280;59403;47.456;19.120;2023-04-22T07:54:45;100276.81;;;17.81;38.73
71567;BME280;59403;47.456;19.120;2023-04-22T07:57:12;100281.13;;;17.95;39.03
71567;BME280;59403;47.456;19.120;2023-04-22T07:59:41;100275.75;;;18.02;39.30
71567;BME280;59403;47.456;19.120;2023-04-22T08:02:07;100285.22;;;18.17;39.23
71567;BME280;59403;47.456;19.120;2023-04-22T08:04:34;100272.47;;;18.13;39.98
71567;BME280;59403;47.456;19.120;2023-04-22T08:07:01;100277.41;;;18.29;39.49
71567;BME280;59403;47.456;19.120;2023-04-22T08:09:28;100270.38;;;18.28;37.69
71567;BME280;59403;47.456;19.120;2023-04-22T08:11:55;100275.09;;;18.39;39.45
71567;BME280;59403;47.456;19.120;2023-04-22T08:14:22;100272.22;;;18.47;39.36
71567;BME280;59403;47.456;19.120;2023-04-22T08:16:52;100277.09;;;18.70;39.21
71567;BME280;59403;47.456;19.120;2023-04-22T08:19:19;100285.94;;;18.83;38.30
71567;BME280;59403;47.456;19.120;2023-04-22T08:21:46;100281.00;;;18.74;39.21
71567;BME280;59403;47.456;19.120;2023-04-22T08:24:13;100277.87;;;18.77;38.93
71567;BME280;59403;47.456;19.120;2023-04-22T08:26:40;100284.87;;;18.84;38.29
71567;BME280;59403;47.456;19.120;2023-04-22T08:29:07;100284.69;;;18.79;39.93
71567;BME280;59403;47.456;19.120;2023-04-22T08:31:34;100281.72;;;19.00;38.24
71567;BME280;59403;47.456;19.120;2023-04-22T08:34:03;100291.44;;;18.95;38.53
71567;BME280;59403;47.456;19.120;2023-04-22T08:36:30;100284.87;;;18.84;37.25
71567;BME280;59403;47.456;19.120;2023-04-22T08:38:57;100282.47;;;19.14;37.86
71567;BME280;59403;47.456;19.120;2023-04-22T08:41:24;100281.72;;;19.00;35.82
71567;BME280;59403;47.456;19.120;2023-04-22T08:43:52;100282.13;;;18.97;35.88
71567;BME280;59403;47.456;19.120;2023-04-22T08:46:19;100276.56;;;18.92;36.48
71567;BME280;59403;47.456;19.120;2023-04-22T08:48:49;100282.19;;;19.22;35.87
71567;BME280;59403;47.456;19.120;2023-04-22T08:51:17;100276.84;;;19.22;36.63
71567;BME280;59403;47.456;19.120;2023-04-22T08:53:44;100273.16;;;19.54;37.25
71567;BME280;59403;47.456;19.120;2023-04-22T08:56:12;100269.94;;;19.39;37.82
71567;BME280;59403;47.456;19.120;2023-04-22T08:58:40;100273.53;;;19.58;37.63
71567;BME280;59403;47.456;19.120;2023-04-22T09:01:07;100268.28;;;19.69;37.07
71567;BME280;59403;47.456;19.120;2023-04-22T09:03:34;100273.34;;;19.84;37.59
71567;BME280;59403;47.456;19.120;2023-04-22T09:06:03;100268.88;;;19.71;36.30
71567;BME280;59403;47.456;19.120;2023-04-22T09:08:32;100267.16;;;19.52;34.72
71567;BME280;59403;47.456;19.120;2023-04-22T09:10:59;100278.25;;;19.87;36.31
71567;BME280;59403;47.456;19.120;2023-04-22T09:13:26;100267.41;;;19.75;34.81
71567;BME280;59403;47.456;19.120;2023-04-22T09:15:53;100275.56;;;19.87;37.32
71567;BME280;59403;47.456;19.120;2023-04-22T09:18:20;100270.59;;;19.90;37.71
71567;BME280;59403;47.456;19.120;2023-04-22T09:20:47;100270.44;;;20.03;37.05
71567;BME280;59403;47.456;19.120;2023-04-22T09:23:15;100261.69;;;19.90;36.27
71567;BME280;59403;47.456;19.120;2023-04-22T09:25:44;100264.97;;;19.92;35.90
71567;BME280;59403;47.456;19.120;2023-04-22T09:28:16;100275.91;;;19.97;34.59
71567;BME280;59403;47.456;19.120;2023-04-22T09:30:44;100269.25;;;19.99;34.47
71567;BME280;59403;47.456;19.120;2023-04-22T09:33:12;100265.84;;;20.10;34.79
71567;BME280;59403;47.456;19.120;2023-04-22T09:35:40;100259.28;;;20.06;34.28
71567;BME280;59403;47.456;19.120;2023-04-22T09:38:09;100265.41;;;20.13;36.31
71567;BME280;59403;47.456;19.120;2023-04-22T09:40:37;100259.53;;;20.23;34.68
71567;BME280;59403;47.456;19.120;2023-04-22T09:43:07;100259.38;;;20.18;34.42
71567;BME280;59403;47.456;19.120;2023-04-22T09:45:36;100253.72;;;20.44;35.48
71567;BME280;59403;47.456;19.120;2023-04-22T09:48:07;100247.25;;;20.52;35.50
71567;BME280;59403;47.456;19.120;2023-04-22T09:50:35;100249.63;;;20.60;36.00
71567;BME280;59403;47.456;19.120;2023-04-22T09:53:04;100246.69;;;20.61;36.30
71567;BME280;59403;47.456;19.120;2023-04-22T09:55:33;100249.41;;;20.43;34.86
71567;BME280;59403;47.456;19.120;2023-04-22T09:58:06;100245.13;;;20.36;34.30
71567;BME280;59403;47.456;19.120;2023-04-22T10:00:36;100239.69;;;19.99;34.06
71567;BME280;59403;47.456;19.120;2023-04-22T10:03:04;100234.00;;;20.32;33.56
71567;BME280;59403;47.456;19.120;2023-04-22T10:05:31;100231.19;;;20.75;34.76
71567;BME280;59403;47.456;19.120;2023-04-22T10:08:02;100224.41;;;20.72;33.98
71567;BME280;59403;47.456;19.120;2023-04-22T10:10:29;100223.19;;;20.86;33.27
71567;BME280;59403;47.456;19.120;2023-04-22T10:12:56;100228.47;;;20.93;32.46
71567;BME280;59403;47.456;19.120;2023-04-22T10:15:26;100229.81;;;20.36;31.58
71567;BME280;59403;47.456;19.120;2023-04-22T10:17:58;100220.13;;;20.10;34.32
71567;BME280;59403;47.456;19.120;2023-04-22T10:20:27;100223.75;;;19.80;35.19
71567;BME280;59403;47.456;19.120;2023-04-22T10:22:55;100223.91;;;19.85;34.37
71567;BME280;59403;47.456;19.120;2023-04-22T10:25:23;100221.50;;;19.52;34.08
71567;BME280;59403;47.456;19.120;2023-04-22T10:28:01;100225.59;;;19.23;34.09
71567;BME280;59403;47.456;19.120;2023-04-22T10:30:31;100218.03;;;19.14;34.60
71567;BME280;59403;47.456;19.120;2023-04-22T10:36:15;100214.34;;;19.40;34.51
71567;BME280;59403;47.456;19.120;2023-04-22T10:39:15;100218.81;;;19.77;34.44
71567;BME280;59403;47.456;19.120;2023-04-22T10:41:50;100214.69;;;19.74;33.02
71567;BME280;59403;47.456;19.120;2023-04-22T10:44:19;100210.69;;;19.27;33.97
71567;BME280;59403;47.456;19.120;2023-04-22T10:46:58;100209.75;;;19.15;34.89
71567;BME280;59403;47.456;19.120;2023-04-22T10:49:26;100213.72;;;19.06;36.45
71567;BME280;59403;47.456;19.120;2023-04-22T10:51:55;100211.13;;;18.93;34.29
71567;BME280;59403;47.456;19.120;2023-04-22T10:54:55;100211.38;;;18.92;34.75
71567;BME280;59403;47.456;19.120;2023-04-22T10:57:31;100199.84;;;18.85;36.08
71567;BME280;59403;47.456;19.120;2023-04-22T11:00:28;100200.41;;;18.93;35.51
71567;BME280;59403;47.456;19.120;2023-04-22T11:03:14;100214.84;;;18.92;35.58
71567;BME280;59403;47.456;19.120;2023-04-22T11:05:42;100209.56;;;18.79;36.86
71567;BME280;59403;47.456;19.120;2023-04-22T11:08:18;100205.88;;;18.74;37.00
71567;BME280;59403;47.456;19.120;2023-04-22T11:10:48;100204.44;;;18.71;38.65
71567;BME280;59403;47.456;19.120;2023-04-22T11:13:16;100201.56;;;18.66;37.72
71567;BME280;59403;47.456;19.120;2023-04-22T11:15:46;100203.91;;;19.25;36.73
71567;BME280;59403;47.456;19.120;2023-04-22T11:18:17;100203.31;;;19.54;35.47
71567;BME280;59403;47.456;19.120;2023-04-22T11:20:45;100194.19;;;19.31;36.52
71567;BME280;59403;47.456;19.120;2023-04-22T11:23:18;100193.97;;;19.57;36.85
71567;BME280;59403;47.456;19.120;2023-04-22T11:25:45;100191.69;;;20.21;35.44
71567;BME280;59403;47.456;19.120;2023-04-22T11:28:12;100189.09;;;20.80;34.61
71567;BME280;59403;47.456;19.120;2023-04-22T11:30:39;100182.13;;;20.91;32.64
71567;BME280;59403;47.456;19.120;2023-04-22T11:33:06;100191.03;;;20.91;35.46
71567;BME280;59403;47.456;19.120;2023-04-22T11:35:35;100185.63;;;21.21;33.51
71567;BME280;59403;47.456;19.120;2023-04-22T11:38:04;100188.88;;;21.53;33.45
71567;BME280;59403;47.456;19.120;2023-04-22T11:40:34;100175.75;;;21.68;32.61
71567;BME280;59403;47.456;19.120;2023-04-22T11:43:03;100187.44;;;21.38;33.35
71567;BME280;59403;47.456;19.120;2023-04-22T11:45:33;100185.53;;;20.68;34.69
71567;BME280;59403;47.456;19.120;2023-04-22T11:48:00;100184.66;;;20.38;33.25
71567;BME280;59403;47.456;19.120;2023-04-22T11:50:30;100179.78;;;20.10;33.86
71567;BME280;59403;47.456;19.120;2023-04-22T11:53:00;100181.50;;;19.87;34.15
71567;BME280;59403;47.456;19.120;2023-04-22T11:55:28;100184.03;;;19.82;34.02
71567;BME280;59403;47.456;19.120;2023-04-22T11:57:57;100182.13;;;19.64;34.65
71567;BME280;59403;47.456;19.120;2023-04-22T12:00:28;100186.91;;;19.62;34.48
71567;BME280;59403;47.456;19.120;2023-04-22T12:02:57;100188.38;;;19.58;37.75
71567;BME280;59403;47.456;19.120;2023-04-22T12:05:37;100189.19;;;19.59;35.50
71567;BME280;59403;47.456;19.120;2023-04-22T12:08:10;100189.87;;;19.54;34.07
71567;BME280;59403;47.456;19.120;2023-04-22T12:10:42;100174.16;;;19.51;35.28
71567;BME280;59403;47.456;19.120;2023-04-22T12:13:09;100188.28;;;19.47;35.38
71567;BME280;59403;47.456;19.120;2023-04-22T12:15:43;100178.19;;;19.42;35.72
71567;BME280;59403;47.456;19.120;2023-04-22T12:18:10;100176.53;;;19.41;35.88
71567;BME280;59403;47.456;19.120;2023-04-22T12:20:38;100170.78;;;19.38;35.06
71567;BME280;59403;47.456;19.120;2023-04-22T12:23:12;100170.78;;;19.38;35.08
71567;BME280;59403;47.456;19.120;2023-04-22T12:25:40;100161.31;;;19.35;36.72
71567;BME280;59403;47.456;19.120;2023-04-22T12:28:07;100160.03;;;19.38;35.99
71567;BME280;59403;47.456;19.120;2023-04-22T12:30:35;100160.41;;;19.41;37.84
71567;BME280;59403;47.456;19.120;2023-04-22T12:33:02;100172.37;;;19.45;36.98
71567;BME280;59403;47.456;19.120;2023-04-22T12:35:31;100170.41;;;19.34;36.73
71567;BME280;59403;47.456;19.120;2023-04-22T12:37:58;100170.78;;;19.38;36.42
71567;BME280;59403;47.456;19.120;2023-04-22T12:40:26;100170.94;;;19.43;37.34
71567;BME280;59403;47.456;19.120;2023-04-22T12:42:53;100160.84;;;19.63;35.72
71567;BME280;59403;47.456;19.120;2023-04-22T12:45:20;100162.34;;;20.38;35.97
71567;BME280;59403;47.456;19.120;2023-04-22T12:47:49;100159.53;;;20.92;35.11
71567;BME280;59403;47.456;19.120;2023-04-22T12:50:18;100155.91;;;21.39;33.70